Buoy 62910

sailwx.info

Track history (hours):
 
Tides and Currents Weather Stations Pressure Air Temp Water Temp Dewpoint Dewpoint Depression Visibility Wind Speed Wind Dir Waves Ship Positions

Drifting buoy 62910

Last reported at 2014-Sep-23 22:12 UTC. Time now 2014-Sep-24 00:24 UTC.
Position N 39°15' E 004°57'.

Water temperature 26.5 ° C

Date/timePositionNaut miles runAvg speedWind from/ knotsBaromVisibWave heightAir tempDewpointWater temp
2014-Sep-23 22:12N 39°15' E 004°57'0 8.3 26.5
2014-Sep-23 22:09N 39°15' E 004°56'1 8.1 26.5
2014-Sep-23 22:05N 39°15' E 004°57'0 0.0 26.5
2014-Sep-23 21:19N 39°15' E 004°57'114.0 26.5
2014-Sep-23 21:16N 39°15' E 004°56'111.6 26.5
2014-Sep-23 21:12N 39°15' E 004°57'0 0.0 26.5
2014-Sep-23 20:33N 39°15' E 004°57'0 0.0 26.5
2014-Sep-23 20:23N 39°15' E 004°57'0 0.0 26.6
2014-Sep-23 19:37N 39°15' E 004°57'0 5.1 26.6
2014-Sep-23 19:32N 39°15' E 004°56'0 0.0 26.6
2014-Sep-23 19:28N 39°15' E 004°56'1 1.0 26.6
2014-Sep-23 18:49N 39°15' E 004°57'0 0.0
2014-Sep-23 17:35N 39°15' E 004°57'116.9
2014-Sep-23 17:31N 39°15' E 004°56'1 0.4 26.6
2014-Sep-23 15:22N 39°15' E 004°57'0 0.0 26.9
2014-Sep-23 14:15N 39°15' E 004°57'0 0.0 26.9
2014-Sep-23 14:14N 39°15' E 004°57'1 6.5
2014-Sep-23 14:08N 39°15' E 004°56'0 0.0 26.9
2014-Sep-23 13:44N 39°15' E 004°56'1 0.4 26.9
2014-Sep-23 12:03N 39°15' E 004°55'0 3.5 26.9
2014-Sep-23 11:58N 39°15' E 004°55'0 1.1 26.8
2014-Sep-23 11:36N 39°15' E 004°54'0 0.0 26.9
2014-Sep-23 11:35N 39°15' E 004°54'0 0.0 26.9
2014-Sep-23 10:50N 39°15' E 004°54'0 0.3 26.7
2014-Sep-23 09:56N 39°14' E 004°54'1 1.2 26.7
2014-Sep-23 09:06N 39°14' E 004°54'0 0.0 26.6
2014-Sep-23 08:17N 39°14' E 004°54'0 0.0 26.5
2014-Sep-23 07:18N 39°14' E 004°54'0 0.3 26.5
2014-Sep-23 06:08N 39°13' E 004°54'0 2.0 26.5
2014-Sep-23 06:02N 39°13' E 004°54'0 0.0 26.5
2014-Sep-23 05:38N 39°13' E 004°54'0 0.1 26.5
2014-Sep-23 04:32N 39°13' E 004°54'0 0.0 26.5
2014-Sep-23 04:27N 39°13' E 004°54'0 0.7 26.5
2014-Sep-23 03:57N 39°13' E 004°54'1 5.8 26.6
2014-Sep-23 03:50N 39°13' E 004°55'0 0.0 26.6
2014-Sep-23 02:48N 39°13' E 004°55'0 0.9 26.5
2014-Sep-23 02:41N 39°13' E 004°55'0 0.0 26.5
2014-Sep-23 02:07N 39°13' E 004°55'1 0.6 26.5
2014-Sep-23 00:30N 39°14' E 004°55'0 0.0 26.5
2014-Sep-22 22:30N 39°14' E 004°55'0 0.0 26.6
2014-Sep-22 21:42N 39°14' E 004°55'1 7.2 26.6
2014-Sep-22 21:35N 39°14' E 004°53'0 6.1 26.6
2014-Sep-22 21:32N 39°14' E 004°54'0 0.0 26.6
2014-Sep-22 20:55N 39°14' E 004°54'0 1.8 26.6
2014-Sep-22 20:44N 39°14' E 004°54'0 0.1 26.6
2014-Sep-22 20:00N 39°14' E 004°53'111.1 26.7
2014-Sep-22 19:53N 39°14' E 004°52'0 0.0 26.7
2014-Sep-22 18:26N 39°14' E 004°52'1 7.0 26.7
2014-Sep-22 18:21N 39°14' E 004°52'1 1.7 26.7
2014-Sep-22 18:00N 39°14' E 004°52'1 2.5 26.6
2014-Sep-22 17:46N 39°14' E 004°52'0 0.0 26.6
2014-Sep-22 16:44N 39°14' E 004°52'1 1.0 26.7
2014-Sep-22 16:09N 39°14' E 004°51'1 0.4 26.7
2014-Sep-22 14:42N 39°13' E 004°51'0 0.0 26.7
2014-Sep-22 14:24N 39°13' E 004°51'0 3.7 26.7
2014-Sep-22 14:21N 39°13' E 004°51'0 0.0 26.7
2014-Sep-22 13:56N 39°13' E 004°51'1 0.8 26.7
2014-Sep-22 12:07N 39°12' E 004°50'0 0.0 26.7
2014-Sep-22 11:56N 39°12' E 004°50'0 0.0 26.7
2014-Sep-22 11:06N 39°12' E 004°50'1 0.5 26.7
2014-Sep-22 09:35N 39°11' E 004°51'0 0.4 26.7
2014-Sep-22 09:28N 39°11' E 004°51'0 2.9 26.7
2014-Sep-22 09:24N 39°11' E 004°50'0 0.2 26.7
2014-Sep-22 08:36N 39°11' E 004°51'1 0.2 26.7
2014-Sep-22 04:54N 39°12' E 004°51'0 0.3 26.7
2014-Sep-22 04:38N 39°12' E 004°51'0 0.8 26.7
2014-Sep-22 04:04N 39°12' E 004°51'0 0.0 26.7
2014-Sep-22 02:59N 39°12' E 004°51'0 3.0
2014-Sep-22 02:55N 39°12' E 004°51'0 0.7 26.7
2014-Sep-22 02:25N 39°12' E 004°51'115.3 26.7
2014-Sep-22 02:20N 39°13' E 004°50'1 0.7 26.7
2014-Sep-22 00:43N 39°13' E 004°48'0 0.0 26.7
2014-Sep-21 22:04N 39°13' E 004°48'1 4.5 26.7
2014-Sep-21 21:57N 39°13' E 004°48'0 0.0 26.7
2014-Sep-21 21:14N 39°13' E 004°48'0 1.8 26.8
2014-Sep-21 21:09N 39°13' E 004°48'1 8.6 26.8
2014-Sep-21 21:04N 39°13' E 004°47'1 0.9 26.8
2014-Sep-21 20:30N 39°13' E 004°46'1 4.5 26.8
2014-Sep-21 20:23N 39°13' E 004°47'1 3.5 26.8
2014-Sep-21 20:14N 39°13' E 004°46'0 0.0 26.8
2014-Sep-21 19:32N 39°13' E 004°46'1 1.1 26.8
2014-Sep-21 18:53N 39°12' E 004°46'1 1.0 26.9
2014-Sep-21 18:23N 39°12' E 004°46'0 0.2 26.9
2014-Sep-21 17:11N 39°12' E 004°46'0 0.3 26.9
2014-Sep-21 16:44N 39°12' E 004°46'0 0.1 26.9
2014-Sep-21 16:19N 39°12' E 004°46'1 0.7 26.9
2014-Sep-21 15:05N 39°12' E 004°45'0 0.6 27.0
2014-Sep-21 14:39N 39°11' E 004°45'1 3.8 27.0
2014-Sep-21 14:30N 39°11' E 004°46'0 0.0 27.0
2014-Sep-21 14:05N 39°11' E 004°46'0 0.1 27.0
2014-Sep-21 12:26N 39°11' E 004°46'0 0.2 27.0
2014-Sep-21 11:31N 39°11' E 004°46'1 1.0 26.9
2014-Sep-21 10:42N 39°12' E 004°46'0 0.0 27.0
2014-Sep-21 10:40N 39°12' E 004°46'0 0.1 27.0
2014-Sep-21 09:54N 39°12' E 004°46'0 0.0 26.9
2014-Sep-21 09:51N 39°12' E 004°46'0 0.5 26.9
2014-Sep-21 09:01N 39°12' E 004°46'0 0.0 26.8
2014-Sep-21 08:58N 39°12' E 004°46'1 1.2 26.8
2014-Sep-21 08:05N 39°13' E 004°46'0 0.0 26.7
2014-Sep-21 07:05N 39°13' E 004°46'0 2.9 26.7
2014-Sep-21 07:01N 39°13' E 004°46'0 0.0 26.7
2014-Sep-21 06:43N 39°13' E 004°46'1 2.7 26.7
2014-Sep-21 06:31N 39°13' E 004°45'0 2.7 26.7
2014-Sep-21 06:26N 39°13' E 004°45'0 0.1 26.7
2014-Sep-21 05:20N 39°13' E 004°45'0 0.2 26.7
2014-Sep-21 05:04N 39°13' E 004°45'1 3.9 26.7
2014-Sep-21 04:50N 39°14' E 004°44'0 1.3 26.7
2014-Sep-21 04:43N 39°14' E 004°44'0 0.0 26.7
2014-Sep-21 04:15N 39°14' E 004°44'0 0.0 26.7
2014-Sep-21 03:45N 39°14' E 004°44'1 8.5 26.7
2014-Sep-21 03:38N 39°14' E 004°43'0 0.0 26.7
2014-Sep-21 03:11N 39°14' E 004°43'0 0.0 26.7
2014-Sep-21 03:08N 39°14' E 004°43'0 0.0 26.7
2014-Sep-21 03:04N 39°14' E 004°43'0 0.1 26.7
2014-Sep-21 02:38N 39°14' E 004°43'1 5.6 26.7
2014-Sep-21 02:29N 39°13' E 004°43'0 0.0 26.7
2014-Sep-21 00:59N 39°13' E 004°43'115.1 26.7
2014-Sep-21 00:54N 39°12' E 004°42'0 0.0 26.7
2014-Sep-20 22:22N 39°12' E 004°42'0 1.2 26.8
2014-Sep-20 22:16N 39°12' E 004°42'0 0.0 26.8
2014-Sep-20 21:36N 39°12' E 004°42'0 2.8 26.8
2014-Sep-20 21:29N 39°12' E 004°42'0 0.0 26.8
2014-Sep-20 20:43N 39°12' E 004°42'0 0.0 26.8
2014-Sep-20 20:36N 39°12' E 004°42'0 0.0 26.8
2014-Sep-20 19:53N 39°12' E 004°42'1 5.4 26.8
2014-Sep-20 19:46N 39°12' E 004°42'0 0.0 26.8
2014-Sep-20 19:23N 39°12' E 004°42'1 2.2 26.8
2014-Sep-20 19:00N 39°12' E 004°42'0 0.2 26.9
2014-Sep-20 17:43N 39°12' E 004°42'1 2.2 26.9
2014-Sep-20 17:07N 39°12' E 004°43'1 1.1 26.9
2014-Sep-20 16:30N 39°13' E 004°43'0 0.0 26.9
2014-Sep-20 15:30N 39°13' E 004°43'0 0.5 26.9
2014-Sep-20 14:48N 39°13' E 004°43'0 0.8 26.9
2014-Sep-20 14:18N 39°13' E 004°43'1 0.5 27.0
2014-Sep-20 12:37N 39°14' E 004°43'0 0.0 26.9
2014-Sep-20 12:32N 39°14' E 004°43'1 0.8 26.9
2014-Sep-20 10:58N 39°15' E 004°41'1 8.4 26.7
2014-Sep-20 10:53N 39°14' E 004°41'0 0.2 26.7
2014-Sep-20 10:09N 39°15' E 004°41'0 0.2 26.7
2014-Sep-20 09:19N 39°15' E 004°41'2 1.0 26.7
2014-Sep-20 07:35N 39°16' E 004°39'0 0.0 26.7
2014-Sep-20 07:28N 39°16' E 004°39'234.2 26.7
2014-Sep-20 07:24N 39°13' E 004°39'0 0.0 26.7
2014-Sep-20 07:12N 39°13' E 004°39'0 0.0 26.7
2014-Sep-20 06:40N 39°13' E 004°39'0 0.0 26.7
2014-Sep-20 05:52N 39°13' E 004°39'0 0.9 26.7
2014-Sep-20 05:49N 39°13' E 004°39'0 1.0 26.7
2014-Sep-20 05:35N 39°13' E 004°38'1 1.4 26.7
2014-Sep-20 05:05N 39°13' E 004°38'116.9 26.7
2014-Sep-20 05:01N 39°12' E 004°37'2 2.6 26.7
2014-Sep-20 04:26N 39°13' E 004°39'0 0.0 26.7
2014-Sep-20 04:03N 39°13' E 004°39'0 0.0 26.7
2014-Sep-20 03:54N 39°13' E 004°39'0 0.0 26.7
2014-Sep-20 03:22N 39°13' E 004°39'0 2.9 26.7
2014-Sep-20 03:17N 39°13' E 004°39'0 1.0 26.7
2014-Sep-20 02:49N 39°13' E 004°39'0 0.0 26.7
2014-Sep-20 01:11N 39°13' E 004°39'361.0 26.7
2014-Sep-20 01:08N 39°13' E 004°43'0 0.0 26.7
2014-Sep-19 22:43N 39°13' E 004°43'2 1.0 26.7
2014-Sep-19 20:57N 39°13' E 004°41'0 0.0 26.7
2014-Sep-19 20:13N 39°13' E 004°41'0 0.0 26.8
2014-Sep-19 20:09N 39°13' E 004°41'0 1.0 26.8
2014-Sep-19 19:55N 39°14' E 004°41'1 1.1 26.8
2014-Sep-19 19:22N 39°14' E 004°41'1 1.1 26.8
2014-Sep-19 18:15N 39°15' E 004°41'0 0.0 26.9
2014-Sep-19 17:30N 39°15' E 004°41'1 0.5 26.9
2014-Sep-19 15:00N 39°15' E 004°39'0 3.7 27.2
2014-Sep-19 14:57N 39°15' E 004°39'1 1.6 27.2
2014-Sep-19 14:27N 39°14' E 004°40'0 1.4 27.2
2014-Sep-19 14:14N 39°15' E 004°39'124.4 27.2
2014-Sep-19 14:11N 39°15' E 004°38'0 0.0 27.2
2014-Sep-19 13:14N 39°15' E 004°38'0 0.2
2014-Sep-19 12:46N 39°15' E 004°38'1 9.7 27.2
2014-Sep-19 12:41N 39°14' E 004°38'1 0.8 27.2
2014-Sep-19 11:21N 39°15' E 004°39'132.5
2014-Sep-19 11:19N 39°14' E 004°38'0 0.0 27.4
2014-Sep-19 11:02N 39°14' E 004°38'0 0.0 27.5
2014-Sep-19 10:33N 39°14' E 004°38'0 0.1 27.2
2014-Sep-19 09:39N 39°14' E 004°38'0 0.3 26.7
2014-Sep-19 08:47N 39°14' E 004°38'0 0.0
2014-Sep-19 07:58N 39°14' E 004°38'114.5 26.6
2014-Sep-19 07:54N 39°13' E 004°39'0 0.0 26.6
2014-Sep-19 06:49N 39°13' E 004°39'0 0.0 26.7
2014-Sep-19 06:05N 39°13' E 004°39'0 0.4 26.7
2014-Sep-19 05:10N 39°13' E 004°40'0 1.8 26.7
2014-Sep-19 05:05N 39°13' E 004°40'1 1.3 26.7
2014-Sep-19 04:37N 39°14' E 004°40'0 0.0 26.7
2014-Sep-19 04:30N 39°14' E 004°40'1 6.1 26.7
2014-Sep-19 04:24N 39°13' E 004°40'1 0.7 26.7
2014-Sep-19 03:35N 39°14' E 004°40'0 0.7 26.7
2014-Sep-19 03:31N 39°14' E 004°40'0 0.7 26.7
2014-Sep-19 02:59N 39°14' E 004°40'1 5.2 26.7
2014-Sep-19 02:52N 39°15' E 004°41'2 0.9 26.7
2014-Sep-19 01:13N 39°16' E 004°40'0 0.0 26.7
2014-Sep-18 23:03N 39°16' E 004°40'0 0.0 26.7
2014-Sep-18 22:17N 39°16' E 004°40'1 8.9 26.7
2014-Sep-18 22:11N 39°15' E 004°39'0 0.0 26.7
2014-Sep-18 21:26N 39°15' E 004°39'0 3.1 26.8
2014-Sep-18 21:18N 39°15' E 004°39'0 0.0 26.8
2014-Sep-18 20:38N 39°15' E 004°39'0 3.5 26.9
2014-Sep-18 20:31N 39°16' E 004°39'0 0.0 26.9
2014-Sep-18 20:25N 39°16' E 004°39'1 1.0 26.9
2014-Sep-18 19:41N 39°16' E 004°38'0 4.8 26.9
2014-Sep-18 19:38N 39°16' E 004°39'0 0.0 26.9
2014-Sep-18 18:54N 39°16' E 004°39'0 0.3 27.0
2014-Sep-18 18:45N 39°16' E 004°39'1 1.2 27.1
2014-Sep-18 17:57N 39°15' E 004°39'0 0.0 27.2
2014-Sep-18 15:15N 39°15' E 004°39'0 4.2 27.6
2014-Sep-18 15:13N 39°15' E 004°39'0 0.7 27.6
2014-Sep-18 14:39N 39°15' E 004°39'0 4.2 27.6
2014-Sep-18 14:34N 39°15' E 004°39'0 0.2 27.6
2014-Sep-18 13:27N 39°15' E 004°39'0 0.0
2014-Sep-18 13:00N 39°15' E 004°39'1 0.5 27.6
2014-Sep-18 11:37N 39°15' E 004°40'0 0.0 27.6
2014-Sep-18 11:18N 39°15' E 004°40'0 0.0 27.5
2014-Sep-18 10:53N 39°15' E 004°40'0 0.5 27.2
2014-Sep-18 10:02N 39°15' E 004°40'0 0.5 27.0
2014-Sep-18 09:09N 39°15' E 004°41'0 0.0 26.8
2014-Sep-18 08:23N 39°15' E 004°41'113.7 26.7
2014-Sep-18 08:18N 39°16' E 004°41'0 0.0 26.7
2014-Sep-18 07:02N 39°16' E 004°41'0 0.0 26.7
2014-Sep-18 06:37N 39°16' E 004°41'0 5.4 26.6
2014-Sep-18 06:35N 39°17' E 004°41'0 0.0 26.6
2014-Sep-18 05:28N 39°17' E 004°41'0 0.0 26.6
2014-Sep-18 05:23N 39°17' E 004°41'0 0.4 26.6
2014-Sep-18 04:58N 39°17' E 004°41'0 0.4 26.6
2014-Sep-18 03:46N 39°17' E 004°40'0 2.0 26.6
2014-Sep-18 03:40N 39°17' E 004°40'0 0.3 26.6
2014-Sep-18 03:15N 39°17' E 004°40'0 0.0 26.6
2014-Sep-18 03:10N 39°17' E 004°40'0 3.1 26.6
2014-Sep-18 03:05N 39°17' E 004°40'0 0.0 26.6
2014-Sep-18 01:33N 39°17' E 004°40'0 0.7 26.6
2014-Sep-18 01:28N 39°17' E 004°40'1 0.4 26.7
2014-Sep-17 22:31N 39°17' E 004°39'0 0.0 26.7
2014-Sep-17 21:40N 39°17' E 004°39'0 0.0 26.7
2014-Sep-17 20:47N 39°17' E 004°39'0 0.0 26.7
2014-Sep-17 20:03N 39°17' E 004°39'1 7.8 26.8
2014-Sep-17 19:57N 39°17' E 004°40'1 1.7 26.8
2014-Sep-17 19:15N 39°18' E 004°40'0 0.0
2014-Sep-17 19:11N 39°18' E 004°40'2 2.3 26.8
2014-Sep-17 18:24N 39°16' E 004°41'0 0.0 26.9
2014-Sep-17 17:38N 39°16' E 004°41'1 1.2 27.0
2014-Sep-17 17:04N 39°17' E 004°41'0 0.0 26.9
2014-Sep-17 16:45N 39°17' E 004°41'0 0.0 27.0
2014-Sep-17 15:24N 39°17' E 004°41'0 1.1 27.2
2014-Sep-17 15:20N 39°17' E 004°42'0 5.6
2014-Sep-17 15:18N 39°17' E 004°42'0 0.0 27.2
2014-Sep-17 15:04N 39°17' E 004°42'1 4.1 27.4
2014-Sep-17 14:50N 39°18' E 004°42'0 0.0 27.3
2014-Sep-17 13:36N 39°18' E 004°42'0 0.0 27.3
2014-Sep-17 13:09N 39°18' E 004°42'0 0.0 27.0
2014-Sep-17 13:06N 39°18' E 004°42'1 0.9 27.0
2014-Sep-17 12:00N 39°19' E 004°42'0 0.3 26.7
2014-Sep-17 11:25N 39°19' E 004°42'1 3.8 26.7
2014-Sep-17 11:14N 39°20' E 004°42'1 9.3 26.7
2014-Sep-17 11:07N 39°19' E 004°42'0 0.0 26.7
2014-Sep-17 10:25N 39°19' E 004°42'0 0.0 26.7
2014-Sep-17 10:21N 39°19' E 004°42'1 0.3 26.7
2014-Sep-17 08:44N 39°19' E 004°42'113.5
2014-Sep-17 08:39N 39°18' E 004°41'0 0.0 26.6
2014-Sep-17 07:49N 39°18' E 004°41'0 0.0 26.6
2014-Sep-17 07:07N 39°18' E 004°41'0 4.6 26.6
2014-Sep-17 07:04N 39°18' E 004°40'1 4.2 26.6
2014-Sep-17 06:56N 39°18' E 004°41'0 0.0 26.6
2014-Sep-17 05:35N 39°18' E 004°41'0 1.1 26.6
2014-Sep-17 05:30N 39°18' E 004°41'011.1 26.6
2014-Sep-17 05:28N 39°18' E 004°41'0 0.0 26.6
2014-Sep-17 05:23N 39°18' E 004°41'1 0.5 26.6
2014-Sep-17 03:55N 39°18' E 004°41'0 0.8 26.7
2014-Sep-17 03:49N 39°18' E 004°41'1 6.0 26.8
2014-Sep-17 03:42N 39°18' E 004°41'0 1.1 26.7
2014-Sep-17 03:19N 39°18' E 004°41'115.5 26.7
2014-Sep-17 03:16N 39°18' E 004°41'0 0.0 26.7
2014-Sep-17 01:42N 39°18' E 004°41'1 0.6 26.7
2014-Sep-16 23:54N 39°18' E 004°42'0 0.0 26.7
2014-Sep-16 22:05N 39°18' E 004°42'0 0.0 26.7
2014-Sep-16 22:01N 39°18' E 004°42'0 0.0 26.7
2014-Sep-16 21:58N 39°18' E 004°42'0 0.0 26.7
2014-Sep-16 21:19N 39°18' E 004°42'1 4.9
2014-Sep-16 21:12N 39°18' E 004°41'0 0.0 26.7
2014-Sep-16 20:26N 39°18' E 004°41'1 7.8 26.7
2014-Sep-16 20:19N 39°18' E 004°42'0 0.0
2014-Sep-16 19:50N 39°18' E 004°42'1 1.9 26.7
2014-Sep-16 19:29N 39°19' E 004°43'0 0.0 26.7
2014-Sep-16 18:10N 39°19' E 004°43'0 0.2 26.8
2014-Sep-16 17:15N 39°19' E 004°43'0 0.0 26.8
2014-Sep-16 17:10N 39°19' E 004°43'0 0.3 26.8
2014-Sep-16 15:34N 39°19' E 004°42'0 1.8 26.9
2014-Sep-16 15:29N 39°19' E 004°42'1 1.4 26.9
2014-Sep-16 15:01N 39°19' E 004°42'0 0.0 26.9
2014-Sep-16 13:54N 39°19' E 004°42'0 7.0 26.9
2014-Sep-16 13:50N 39°19' E 004°42'0 0.0 26.9
2014-Sep-16 13:22N 39°19' E 004°42'0 0.0 26.9
2014-Sep-16 13:17N 39°19' E 004°42'0 0.0 26.9
2014-Sep-16 12:18N 39°19' E 004°42'0 0.0 26.9
2014-Sep-16 11:39N 39°19' E 004°42'0 0.0 26.9
2014-Sep-16 11:34N 39°19' E 004°42'0 0.5 26.9
2014-Sep-16 10:38N 39°19' E 004°42'0 0.0 26.8
2014-Sep-16 09:53N 39°19' E 004°42'0 0.3 26.7
2014-Sep-16 09:00N 39°19' E 004°42'1 0.6 26.7
2014-Sep-16 08:09N 39°18' E 004°42'0 0.0
2014-Sep-16 05:58N 39°18' E 004°42'0 1.8 26.6
2014-Sep-16 05:46N 39°19' E 004°42'0 0.0 26.6
2014-Sep-16 05:39N 39°19' E 004°42'0 0.0 26.6
2014-Sep-16 04:19N 39°19' E 004°42'0 1.2 26.6
2014-Sep-16 04:09N 39°19' E 004°42'0 0.0 26.6
2014-Sep-16 04:05N 39°19' E 004°42'0 0.5 26.6
2014-Sep-16 03:32N 39°18' E 004°43'1 5.4 26.6
2014-Sep-16 03:26N 39°19' E 004°43'0 0.0 26.6
2014-Sep-16 01:53N 39°19' E 004°43'1 4.0 26.6
2014-Sep-16 01:44N 39°20' E 004°42'0 0.0 26.6
2014-Sep-16 00:12N 39°20' E 004°42'0 0.0 26.6
2014-Sep-16 00:07N 39°20' E 004°42'0 0.0 26.6
2014-Sep-15 22:26N 39°20' E 004°42'0 0.2 26.6
2014-Sep-15 20:47N 39°20' E 004°42'0 0.0 26.7
2014-Sep-15 20:38N 39°20' E 004°42'0 0.0 26.7
2014-Sep-15 20:19N 39°20' E 004°42'1 1.4 26.7
2014-Sep-15 19:51N 39°19' E 004°42'0 0.0 26.7
2014-Sep-15 19:05N 39°19' E 004°42'0 0.0 26.7
2014-Sep-15 18:42N 39°19' E 004°42'1 1.2 26.7
2014-Sep-15 17:35N 39°19' E 004°40'1 5.2 26.8
2014-Sep-15 17:26N 39°18' E 004°41'0 0.0 26.8
2014-Sep-15 16:59N 39°18' E 004°41'0 0.0 26.8
2014-Sep-15 15:56N 39°18' E 004°41'0 2.2 26.9
2014-Sep-15 15:45N 39°19' E 004°41'0 0.0 26.9
2014-Sep-15 15:40N 39°19' E 004°41'0 0.0 26.9
2014-Sep-15 15:10N 39°19' E 004°41'1 0.8 26.9
2014-Sep-15 14:04N 39°18' E 004°41'0 3.7 26.9
2014-Sep-15 14:01N 39°18' E 004°41'0 1.0 26.8
2014-Sep-15 13:31N 39°18' E 004°41'0 1.7 26.8
2014-Sep-15 13:26N 39°18' E 004°41'1 0.7 26.8
2014-Sep-15 11:50N 39°17' E 004°42'0 3.5 26.7
2014-Sep-15 11:45N 39°17' E 004°42'0 0.0 37.7
2014-Sep-15 11:02N 39°17' E 004°42'1 0.7 26.6
2014-Sep-15 10:16N 39°17' E 004°43'0 0.5 26.6
2014-Sep-15 09:22N 39°17' E 004°43'0 2.0 26.6
2014-Sep-15 09:16N 39°18' E 004°43'0 0.0 26.6
2014-Sep-15 08:36N 39°18' E 004°43'1 5.1 26.6
2014-Sep-15 08:30N 39°17' E 004°44'0 0.0 26.6
2014-Sep-15 07:43N 39°17' E 004°44'112.7 26.6
2014-Sep-15 07:39N 39°18' E 004°43'0 0.0 26.6
2014-Sep-15 06:30N 39°18' E 004°43'0 0.7 26.6
2014-Sep-15 06:11N 39°18' E 004°43'0 0.7 26.6
2014-Sep-15 05:57N 39°18' E 004°43'1 8.1 26.6
2014-Sep-15 05:51N 39°18' E 004°42'0 0.0 26.6
2014-Sep-15 04:48N 39°18' E 004°42'1 2.1 26.6
2014-Sep-15 04:32N 39°18' E 004°42'1 1.2 26.6
2014-Sep-15 03:44N 39°19' E 004°42'0 0.0 26.6
2014-Sep-15 02:37N 39°19' E 004°42'127.2 26.6
2014-Sep-15 02:34N 39°18' E 004°41'0 0.0 26.6
2014-Sep-15 02:07N 39°18' E 004°41'0 0.0
2014-Sep-15 02:04N 39°18' E 004°41'1 5.3 26.6
2014-Sep-15 01:57N 39°18' E 004°42'0 0.0 26.6
2014-Sep-15 00:21N 39°18' E 004°42'2 0.9 26.6
2014-Sep-14 22:40N 39°17' E 004°43'0 0.0 26.6
2014-Sep-14 21:58N 39°17' E 004°43'0 0.0 26.7
2014-Sep-14 21:09N 39°17' E 004°43'1 5.0 26.7
2014-Sep-14 21:01N 39°16' E 004°43'0 0.0 26.7
2014-Sep-14 20:17N 39°16' E 004°43'0 5.6 26.7
2014-Sep-14 20:12N 39°16' E 004°44'0 0.0 26.7
2014-Sep-14 19:24N 39°16' E 004°44'0 0.0 26.7
2014-Sep-14 19:19N 39°16' E 004°44'0 0.0 26.7
2014-Sep-14 19:12N 39°16' E 004°44'0 0.5 26.8
2014-Sep-14 18:37N 39°16' E 004°44'0 0.0 26.8
2014-Sep-14 17:58N 39°16' E 004°44'113.9 26.8
2014-Sep-14 17:54N 39°17' E 004°45'0 0.0 26.8
2014-Sep-14 17:37N 39°17' E 004°45'1 0.4 26.9
2014-Sep-14 16:19N 39°16' E 004°45'0 0.3 26.9
2014-Sep-14 15:58N 39°16' E 004°45'0 2.6 26.9
2014-Sep-14 15:51N 39°17' E 004°45'0 0.0 26.9
2014-Sep-14 15:21N 39°17' E 004°45'0 0.0 26.9
2014-Sep-14 14:38N 39°17' E 004°45'0 0.0 26.9
2014-Sep-14 14:17N 39°17' E 004°45'0 2.8 26.9
2014-Sep-14 14:10N 39°16' E 004°45'0 0.0 26.9
2014-Sep-14 13:40N 39°16' E 004°45'0 0.1 26.9
2014-Sep-14 12:01N 39°16' E 004°45'0 0.7 27.0
2014-Sep-14 11:57N 39°16' E 004°45'0 0.2 27.0
2014-Sep-14 11:22N 39°16' E 004°45'0 0.0 27.0
2014-Sep-14 10:36N 39°16' E 004°45'0 3.5 26.9
2014-Sep-14 10:29N 39°16' E 004°44'0 0.6
2014-Sep-14 09:41N 39°16' E 004°45'1 1.1 26.7
2014-Sep-14 08:54N 39°15' E 004°44'0 0.0 26.6
2014-Sep-14 07:57N 39°15' E 004°44'0 0.0 26.6
2014-Sep-14 07:02N 39°15' E 004°44'0 1.0 26.6
2014-Sep-14 06:36N 39°16' E 004°44'0 0.4 26.6
2014-Sep-14 06:08N 39°16' E 004°44'1 1.1 26.6
2014-Sep-14 05:23N 39°15' E 004°45'0 0.6 26.6
2014-Sep-14 04:57N 39°15' E 004°44'0 0.6 26.6
2014-Sep-14 04:29N 39°15' E 004°45'0 5.7 26.6
2014-Sep-14 04:25N 39°15' E 004°44'0 0.1 26.6
2014-Sep-14 03:53N 39°15' E 004°44'1 4.2 26.6
2014-Sep-14 03:41N 39°15' E 004°45'0 0.0 26.6
2014-Sep-14 02:50N 39°15' E 004°45'0 1.8 26.6
2014-Sep-14 02:44N 39°15' E 004°46'0 0.0 26.6
2014-Sep-14 02:18N 39°15' E 004°46'0 0.0 26.6
2014-Sep-14 02:14N 39°15' E 004°46'1 0.4 26.6
2014-Sep-14 00:35N 39°15' E 004°46'110.0 26.6
2014-Sep-14 00:28N 39°15' E 004°47'0 0.0
2014-Sep-13 22:19N 39°15' E 004°47'0 0.6 26.7
2014-Sep-13 22:14N 39°15' E 004°47'   26.7
Track history (hours):
 
Tides and Currents Weather Stations Pressure Air Temp Water Temp Dewpoint Dewpoint Depression Visibility Wind Speed Wind Dir Waves Ship Positions

Drifting buoy 62910

Last reported at 2014-Sep-23 22:12 UTC. Time now 2014-Sep-24 00:24 UTC.
Position N 39°15' E 004°57'.

Water temperature 26.5 ° C

Date/timePositionNaut miles runAvg speedWind from/ knotsBaromVisibWave heightAir tempDewpointWater temp
2014-Sep-23 22:12N 39°15' E 004°57'0 8.3 26.5
2014-Sep-23 22:09N 39°15' E 004°56'1 8.1 26.5
2014-Sep-23 22:05N 39°15' E 004°57'0 0.0 26.5
2014-Sep-23 21:19N 39°15' E 004°57'114.0 26.5
2014-Sep-23 21:16N 39°15' E 004°56'111.6 26.5
2014-Sep-23 21:12N 39°15' E 004°57'0 0.0 26.5
2014-Sep-23 20:33N 39°15' E 004°57'0 0.0 26.5
2014-Sep-23 20:23N 39°15' E 004°57'0 0.0 26.6
2014-Sep-23 19:37N 39°15' E 004°57'0 5.1 26.6
2014-Sep-23 19:32N 39°15' E 004°56'0 0.0 26.6
2014-Sep-23 19:28N 39°15' E 004°56'1 1.0 26.6
2014-Sep-23 18:49N 39°15' E 004°57'0 0.0
2014-Sep-23 17:35N 39°15' E 004°57'116.9
2014-Sep-23 17:31N 39°15' E 004°56'1 0.4 26.6
2014-Sep-23 15:22N 39°15' E 004°57'0 0.0 26.9
2014-Sep-23 14:15N 39°15' E 004°57'0 0.0 26.9
2014-Sep-23 14:14N 39°15' E 004°57'1 6.5
2014-Sep-23 14:08N 39°15' E 004°56'0 0.0 26.9
2014-Sep-23 13:44N 39°15' E 004°56'1 0.4 26.9
2014-Sep-23 12:03N 39°15' E 004°55'0 3.5 26.9
2014-Sep-23 11:58N 39°15' E 004°55'0 1.1 26.8
2014-Sep-23 11:36N 39°15' E 004°54'0 0.0 26.9
2014-Sep-23 11:35N 39°15' E 004°54'0 0.0 26.9
2014-Sep-23 10:50N 39°15' E 004°54'0 0.3 26.7
2014-Sep-23 09:56N 39°14' E 004°54'1 1.2 26.7
2014-Sep-23 09:06N 39°14' E 004°54'0 0.0 26.6
2014-Sep-23 08:17N 39°14' E 004°54'0 0.0 26.5
2014-Sep-23 07:18N 39°14' E 004°54'0 0.3 26.5
2014-Sep-23 06:08N 39°13' E 004°54'0 2.0 26.5
2014-Sep-23 06:02N 39°13' E 004°54'0 0.0 26.5
2014-Sep-23 05:38N 39°13' E 004°54'0 0.1 26.5
2014-Sep-23 04:32N 39°13' E 004°54'0 0.0 26.5
2014-Sep-23 04:27N 39°13' E 004°54'0 0.7 26.5
2014-Sep-23 03:57N 39°13' E 004°54'1 5.8 26.6
2014-Sep-23 03:50N 39°13' E 004°55'0 0.0 26.6
2014-Sep-23 02:48N 39°13' E 004°55'0 0.9 26.5
2014-Sep-23 02:41N 39°13' E 004°55'0 0.0 26.5
2014-Sep-23 02:07N 39°13' E 004°55'1 0.6 26.5
2014-Sep-23 00:30N 39°14' E 004°55'0 0.0 26.5
2014-Sep-22 22:30N 39°14' E 004°55'0 0.0 26.6
2014-Sep-22 21:42N 39°14' E 004°55'1 7.2 26.6
2014-Sep-22 21:35N 39°14' E 004°53'0 6.1 26.6
2014-Sep-22 21:32N 39°14' E 004°54'0 0.0 26.6
2014-Sep-22 20:55N 39°14' E 004°54'0 1.8 26.6
2014-Sep-22 20:44N 39°14' E 004°54'0 0.1 26.6
2014-Sep-22 20:00N 39°14' E 004°53'111.1 26.7
2014-Sep-22 19:53N 39°14' E 004°52'0 0.0 26.7
2014-Sep-22 18:26N 39°14' E 004°52'1 7.0 26.7
2014-Sep-22 18:21N 39°14' E 004°52'1 1.7 26.7
2014-Sep-22 18:00N 39°14' E 004°52'1 2.5 26.6
2014-Sep-22 17:46N 39°14' E 004°52'0 0.0 26.6
2014-Sep-22 16:44N 39°14' E 004°52'1 1.0 26.7
2014-Sep-22 16:09N 39°14' E 004°51'1 0.4 26.7
2014-Sep-22 14:42N 39°13' E 004°51'0 0.0 26.7
2014-Sep-22 14:24N 39°13' E 004°51'0 3.7 26.7
2014-Sep-22 14:21N 39°13' E 004°51'0 0.0 26.7
2014-Sep-22 13:56N 39°13' E 004°51'1 0.8 26.7
2014-Sep-22 12:07N 39°12' E 004°50'0 0.0 26.7
2014-Sep-22 11:56N 39°12' E 004°50'0 0.0 26.7
2014-Sep-22 11:06N 39°12' E 004°50'1 0.5 26.7
2014-Sep-22 09:35N 39°11' E 004°51'0 0.4 26.7
2014-Sep-22 09:28N 39°11' E 004°51'0 2.9 26.7
2014-Sep-22 09:24N 39°11' E 004°50'0 0.2 26.7
2014-Sep-22 08:36N 39°11' E 004°51'1 0.2 26.7
2014-Sep-22 04:54N 39°12' E 004°51'0 0.3 26.7
2014-Sep-22 04:38N 39°12' E 004°51'0 0.8 26.7
2014-Sep-22 04:04N 39°12' E 004°51'0 0.0 26.7
2014-Sep-22 02:59N 39°12' E 004°51'0 3.0
2014-Sep-22 02:55N 39°12' E 004°51'0 0.7 26.7
2014-Sep-22 02:25N 39°12' E 004°51'115.3 26.7
2014-Sep-22 02:20N 39°13' E 004°50'1 0.7 26.7
2014-Sep-22 00:43N 39°13' E 004°48'0 0.0 26.7
2014-Sep-21 22:04N 39°13' E 004°48'1 4.5 26.7
2014-Sep-21 21:57N 39°13' E 004°48'0 0.0 26.7
2014-Sep-21 21:14N 39°13' E 004°48'0 1.8 26.8
2014-Sep-21 21:09N 39°13' E 004°48'1 8.6 26.8
2014-Sep-21 21:04N 39°13' E 004°47'1 0.9 26.8
2014-Sep-21 20:30N 39°13' E 004°46'1 4.5 26.8
2014-Sep-21 20:23N 39°13' E 004°47'1 3.5 26.8
2014-Sep-21 20:14N 39°13' E 004°46'0 0.0 26.8
2014-Sep-21 19:32N 39°13' E 004°46'1 1.1 26.8
2014-Sep-21 18:53N 39°12' E 004°46'1 1.0 26.9
2014-Sep-21 18:23N 39°12' E 004°46'0 0.2 26.9
2014-Sep-21 17:11N 39°12' E 004°46'0 0.3 26.9
2014-Sep-21 16:44N 39°12' E 004°46'0 0.1 26.9
2014-Sep-21 16:19N 39°12' E 004°46'1 0.7 26.9
2014-Sep-21 15:05N 39°12' E 004°45'0 0.6 27.0
2014-Sep-21 14:39N 39°11' E 004°45'1 3.8 27.0
2014-Sep-21 14:30N 39°11' E 004°46'0 0.0 27.0
2014-Sep-21 14:05N 39°11' E 004°46'0 0.1 27.0
2014-Sep-21 12:26N 39°11' E 004°46'0 0.2 27.0
2014-Sep-21 11:31N 39°11' E 004°46'1 1.0 26.9
2014-Sep-21 10:42N 39°12' E 004°46'0 0.0 27.0
2014-Sep-21 10:40N 39°12' E 004°46'0 0.1 27.0
2014-Sep-21 09:54N 39°12' E 004°46'0 0.0 26.9
2014-Sep-21 09:51N 39°12' E 004°46'0 0.5 26.9
2014-Sep-21 09:01N 39°12' E 004°46'0 0.0 26.8
2014-Sep-21 08:58N 39°12' E 004°46'1 1.2 26.8
2014-Sep-21 08:05N 39°13' E 004°46'0 0.0 26.7
2014-Sep-21 07:05N 39°13' E 004°46'0 2.9 26.7
2014-Sep-21 07:01N 39°13' E 004°46'0 0.0 26.7
2014-Sep-21 06:43N 39°13' E 004°46'1 2.7 26.7
2014-Sep-21 06:31N 39°13' E 004°45'0 2.7 26.7
2014-Sep-21 06:26N 39°13' E 004°45'0 0.1 26.7
2014-Sep-21 05:20N 39°13' E 004°45'0 0.2 26.7
2014-Sep-21 05:04N 39°13' E 004°45'1 3.9 26.7
2014-Sep-21 04:50N 39°14' E 004°44'0 1.3 26.7
2014-Sep-21 04:43N 39°14' E 004°44'0 0.0 26.7
2014-Sep-21 04:15N 39°14' E 004°44'0 0.0 26.7
2014-Sep-21 03:45N 39°14' E 004°44'1 8.5 26.7
2014-Sep-21 03:38N 39°14' E 004°43'0 0.0 26.7
2014-Sep-21 03:11N 39°14' E 004°43'0 0.0 26.7
2014-Sep-21 03:08N 39°14' E 004°43'0 0.0 26.7
2014-Sep-21 03:04N 39°14' E 004°43'0 0.1 26.7
2014-Sep-21 02:38N 39°14' E 004°43'1 5.6 26.7
2014-Sep-21 02:29N 39°13' E 004°43'0 0.0 26.7
2014-Sep-21 00:59N 39°13' E 004°43'115.1 26.7
2014-Sep-21 00:54N 39°12' E 004°42'0 0.0 26.7
2014-Sep-20 22:22N 39°12' E 004°42'0 1.2 26.8
2014-Sep-20 22:16N 39°12' E 004°42'0 0.0 26.8
2014-Sep-20 21:36N 39°12' E 004°42'0 2.8 26.8
2014-Sep-20 21:29N 39°12' E 004°42'0 0.0 26.8
2014-Sep-20 20:43N 39°12' E 004°42'0 0.0 26.8
2014-Sep-20 20:36N 39°12' E 004°42'0 0.0 26.8
2014-Sep-20 19:53N 39°12' E 004°42'1 5.4 26.8
2014-Sep-20 19:46N 39°12' E 004°42'0 0.0 26.8
2014-Sep-20 19:23N 39°12' E 004°42'1 2.2 26.8
2014-Sep-20 19:00N 39°12' E 004°42'0 0.2 26.9
2014-Sep-20 17:43N 39°12' E 004°42'1 2.2 26.9
2014-Sep-20 17:07N 39°12' E 004°43'1 1.1 26.9
2014-Sep-20 16:30N 39°13' E 004°43'0 0.0 26.9
2014-Sep-20 15:30N 39°13' E 004°43'0 0.5 26.9
2014-Sep-20 14:48N 39°13' E 004°43'0 0.8 26.9
2014-Sep-20 14:18N 39°13' E 004°43'1 0.5 27.0
2014-Sep-20 12:37N 39°14' E 004°43'0 0.0 26.9
2014-Sep-20 12:32N 39°14' E 004°43'1 0.8 26.9
2014-Sep-20 10:58N 39°15' E 004°41'1 8.4 26.7
2014-Sep-20 10:53N 39°14' E 004°41'0 0.2 26.7
2014-Sep-20 10:09N 39°15' E 004°41'0 0.2 26.7
2014-Sep-20 09:19N 39°15' E 004°41'2 1.0 26.7
2014-Sep-20 07:35N 39°16' E 004°39'0 0.0 26.7
2014-Sep-20 07:28N 39°16' E 004°39'234.2 26.7
2014-Sep-20 07:24N 39°13' E 004°39'0 0.0 26.7
2014-Sep-20 07:12N 39°13' E 004°39'0 0.0 26.7
2014-Sep-20 06:40N 39°13' E 004°39'0 0.0 26.7
2014-Sep-20 05:52N 39°13' E 004°39'0 0.9 26.7
2014-Sep-20 05:49N 39°13' E 004°39'0 1.0 26.7
2014-Sep-20 05:35N 39°13' E 004°38'1 1.4 26.7
2014-Sep-20 05:05N 39°13' E 004°38'116.9 26.7
2014-Sep-20 05:01N 39°12' E 004°37'2 2.6 26.7
2014-Sep-20 04:26N 39°13' E 004°39'0 0.0 26.7
2014-Sep-20 04:03N 39°13' E 004°39'0 0.0 26.7
2014-Sep-20 03:54N 39°13' E 004°39'0 0.0 26.7
2014-Sep-20 03:22N 39°13' E 004°39'0 2.9 26.7
2014-Sep-20 03:17N 39°13' E 004°39'0 1.0 26.7
2014-Sep-20 02:49N 39°13' E 004°39'0 0.0 26.7
2014-Sep-20 01:11N 39°13' E 004°39'361.0 26.7
2014-Sep-20 01:08N 39°13' E 004°43'0 0.0 26.7
2014-Sep-19 22:43N 39°13' E 004°43'2 1.0 26.7
2014-Sep-19 20:57N 39°13' E 004°41'0 0.0 26.7
2014-Sep-19 20:13N 39°13' E 004°41'0 0.0 26.8
2014-Sep-19 20:09N 39°13' E 004°41'0 1.0 26.8
2014-Sep-19 19:55N 39°14' E 004°41'1 1.1 26.8
2014-Sep-19 19:22N 39°14' E 004°41'1 1.1 26.8
2014-Sep-19 18:15N 39°15' E 004°41'0 0.0 26.9
2014-Sep-19 17:30N 39°15' E 004°41'1 0.5 26.9
2014-Sep-19 15:00N 39°15' E 004°39'0 3.7 27.2
2014-Sep-19 14:57N 39°15' E 004°39'1 1.6 27.2
2014-Sep-19 14:27N 39°14' E 004°40'0 1.4 27.2
2014-Sep-19 14:14N 39°15' E 004°39'124.4 27.2
2014-Sep-19 14:11N 39°15' E 004°38'0 0.0 27.2
2014-Sep-19 13:14N 39°15' E 004°38'0 0.2
2014-Sep-19 12:46N 39°15' E 004°38'1 9.7 27.2
2014-Sep-19 12:41N 39°14' E 004°38'1 0.8 27.2
2014-Sep-19 11:21N 39°15' E 004°39'132.5
2014-Sep-19 11:19N 39°14' E 004°38'0 0.0 27.4
2014-Sep-19 11:02N 39°14' E 004°38'0 0.0 27.5
2014-Sep-19 10:33N 39°14' E 004°38'0 0.1 27.2
2014-Sep-19 09:39N 39°14' E 004°38'0 0.3 26.7
2014-Sep-19 08:47N 39°14' E 004°38'0 0.0
2014-Sep-19 07:58N 39°14' E 004°38'114.5 26.6
2014-Sep-19 07:54N 39°13' E 004°39'0 0.0 26.6
2014-Sep-19 06:49N 39°13' E 004°39'0 0.0 26.7
2014-Sep-19 06:05N 39°13' E 004°39'0 0.4 26.7
2014-Sep-19 05:10N 39°13' E 004°40'0 1.8 26.7
2014-Sep-19 05:05N 39°13' E 004°40'1 1.3 26.7
2014-Sep-19 04:37N 39°14' E 004°40'0 0.0 26.7
2014-Sep-19 04:30N 39°14' E 004°40'1 6.1 26.7
2014-Sep-19 04:24N 39°13' E 004°40'1 0.7 26.7
2014-Sep-19 03:35N 39°14' E 004°40'0 0.7 26.7
2014-Sep-19 03:31N 39°14' E 004°40'0 0.7 26.7
2014-Sep-19 02:59N 39°14' E 004°40'1 5.2 26.7
2014-Sep-19 02:52N 39°15' E 004°41'2 0.9 26.7
2014-Sep-19 01:13N 39°16' E 004°40'0 0.0 26.7
2014-Sep-18 23:03N 39°16' E 004°40'0 0.0 26.7
2014-Sep-18 22:17N 39°16' E 004°40'1 8.9 26.7
2014-Sep-18 22:11N 39°15' E 004°39'0 0.0 26.7
2014-Sep-18 21:26N 39°15' E 004°39'0 3.1 26.8
2014-Sep-18 21:18N 39°15' E 004°39'0 0.0 26.8
2014-Sep-18 20:38N 39°15' E 004°39'0 3.5 26.9
2014-Sep-18 20:31N 39°16' E 004°39'0 0.0 26.9
2014-Sep-18 20:25N 39°16' E 004°39'1 1.0 26.9
2014-Sep-18 19:41N 39°16' E 004°38'0 4.8 26.9
2014-Sep-18 19:38N 39°16' E 004°39'0 0.0 26.9
2014-Sep-18 18:54N 39°16' E 004°39'0 0.3 27.0
2014-Sep-18 18:45N 39°16' E 004°39'1 1.2 27.1
2014-Sep-18 17:57N 39°15' E 004°39'0 0.0 27.2
2014-Sep-18 15:15N 39°15' E 004°39'0 4.2 27.6
2014-Sep-18 15:13N 39°15' E 004°39'0 0.7 27.6
2014-Sep-18 14:39N 39°15' E 004°39'0 4.2 27.6
2014-Sep-18 14:34N 39°15' E 004°39'0 0.2 27.6
2014-Sep-18 13:27N 39°15' E 004°39'0 0.0
2014-Sep-18 13:00N 39°15' E 004°39'1 0.5 27.6
2014-Sep-18 11:37N 39°15' E 004°40'0 0.0 27.6
2014-Sep-18 11:18N 39°15' E 004°40'0 0.0 27.5
2014-Sep-18 10:53N 39°15' E 004°40'0 0.5 27.2
2014-Sep-18 10:02N 39°15' E 004°40'0 0.5 27.0
2014-Sep-18 09:09N 39°15' E 004°41'0 0.0 26.8
2014-Sep-18 08:23N 39°15' E 004°41'113.7 26.7
2014-Sep-18 08:18N 39°16' E 004°41'0 0.0 26.7
2014-Sep-18 07:02N 39°16' E 004°41'0 0.0 26.7
2014-Sep-18 06:37N 39°16' E 004°41'0 5.4 26.6
2014-Sep-18 06:35N 39°17' E 004°41'0 0.0 26.6
2014-Sep-18 05:28N 39°17' E 004°41'0 0.0 26.6
2014-Sep-18 05:23N 39°17' E 004°41'0 0.4 26.6
2014-Sep-18 04:58N 39°17' E 004°41'0 0.4 26.6
2014-Sep-18 03:46N 39°17' E 004°40'0 2.0 26.6
2014-Sep-18 03:40N 39°17' E 004°40'0 0.3 26.6
2014-Sep-18 03:15N 39°17' E 004°40'0 0.0 26.6
2014-Sep-18 03:10N 39°17' E 004°40'0 3.1 26.6
2014-Sep-18 03:05N 39°17' E 004°40'0 0.0 26.6
2014-Sep-18 01:33N 39°17' E 004°40'0 0.7 26.6
2014-Sep-18 01:28N 39°17' E 004°40'1 0.4 26.7
2014-Sep-17 22:31N 39°17' E 004°39'0 0.0 26.7
2014-Sep-17 21:40N 39°17' E 004°39'0 0.0 26.7
2014-Sep-17 20:47N 39°17' E 004°39'0 0.0 26.7
2014-Sep-17 20:03N 39°17' E 004°39'1 7.8 26.8
2014-Sep-17 19:57N 39°17' E 004°40'1 1.7 26.8
2014-Sep-17 19:15N 39°18' E 004°40'0 0.0
2014-Sep-17 19:11N 39°18' E 004°40'2 2.3 26.8
2014-Sep-17 18:24N 39°16' E 004°41'0 0.0 26.9
2014-Sep-17 17:38N 39°16' E 004°41'1 1.2 27.0
2014-Sep-17 17:04N 39°17' E 004°41'0 0.0 26.9
2014-Sep-17 16:45N 39°17' E 004°41'0 0.0 27.0
2014-Sep-17 15:24N 39°17' E 004°41'0 1.1 27.2
2014-Sep-17 15:20N 39°17' E 004°42'0 5.6
2014-Sep-17 15:18N 39°17' E 004°42'0 0.0 27.2
2014-Sep-17 15:04N 39°17' E 004°42'1 4.1 27.4
2014-Sep-17 14:50N 39°18' E 004°42'0 0.0 27.3
2014-Sep-17 13:36N 39°18' E 004°42'0 0.0 27.3
2014-Sep-17 13:09N 39°18' E 004°42'0 0.0 27.0
2014-Sep-17 13:06N 39°18' E 004°42'1 0.9 27.0
2014-Sep-17 12:00N 39°19' E 004°42'0 0.3 26.7
2014-Sep-17 11:25N 39°19' E 004°42'1 3.8 26.7
2014-Sep-17 11:14N 39°20' E 004°42'1 9.3 26.7
2014-Sep-17 11:07N 39°19' E 004°42'0 0.0 26.7
2014-Sep-17 10:25N 39°19' E 004°42'0 0.0 26.7
2014-Sep-17 10:21N 39°19' E 004°42'1 0.3 26.7
2014-Sep-17 08:44N 39°19' E 004°42'113.5
2014-Sep-17 08:39N 39°18' E 004°41'0 0.0 26.6
2014-Sep-17 07:49N 39°18' E 004°41'0 0.0 26.6
2014-Sep-17 07:07N 39°18' E 004°41'0 4.6 26.6
2014-Sep-17 07:04N 39°18' E 004°40'1 4.2 26.6
2014-Sep-17 06:56N 39°18' E 004°41'0 0.0 26.6
2014-Sep-17 05:35N 39°18' E 004°41'0 1.1 26.6
2014-Sep-17 05:30N 39°18' E 004°41'011.1 26.6
2014-Sep-17 05:28N 39°18' E 004°41'0 0.0 26.6
2014-Sep-17 05:23N 39°18' E 004°41'1 0.5 26.6
2014-Sep-17 03:55N 39°18' E 004°41'0 0.8 26.7
2014-Sep-17 03:49N 39°18' E 004°41'1 6.0 26.8
2014-Sep-17 03:42N 39°18' E 004°41'0 1.1 26.7
2014-Sep-17 03:19N 39°18' E 004°41'115.5 26.7
2014-Sep-17 03:16N 39°18' E 004°41'0 0.0 26.7
2014-Sep-17 01:42N 39°18' E 004°41'1 0.6 26.7
2014-Sep-16 23:54N 39°18' E 004°42'0 0.0 26.7
2014-Sep-16 22:05N 39°18' E 004°42'0 0.0 26.7
2014-Sep-16 22:01N 39°18' E 004°42'0 0.0 26.7
2014-Sep-16 21:58N 39°18' E 004°42'0 0.0 26.7
2014-Sep-16 21:19N 39°18' E 004°42'1 4.9
2014-Sep-16 21:12N 39°18' E 004°41'0 0.0 26.7
2014-Sep-16 20:26N 39°18' E 004°41'1 7.8 26.7
2014-Sep-16 20:19N 39°18' E 004°42'0 0.0
2014-Sep-16 19:50N 39°18' E 004°42'1 1.9 26.7
2014-Sep-16 19:29N 39°19' E 004°43'0 0.0 26.7
2014-Sep-16 18:10N 39°19' E 004°43'0 0.2 26.8
2014-Sep-16 17:15N 39°19' E 004°43'0 0.0 26.8
2014-Sep-16 17:10N 39°19' E 004°43'0 0.3 26.8
2014-Sep-16 15:34N 39°19' E 004°42'0 1.8 26.9
2014-Sep-16 15:29N 39°19' E 004°42'1 1.4 26.9
2014-Sep-16 15:01N 39°19' E 004°42'0 0.0 26.9
2014-Sep-16 13:54N 39°19' E 004°42'0 7.0 26.9
2014-Sep-16 13:50N 39°19' E 004°42'0 0.0 26.9
2014-Sep-16 13:22N 39°19' E 004°42'0 0.0 26.9
2014-Sep-16 13:17N 39°19' E 004°42'0 0.0 26.9
2014-Sep-16 12:18N 39°19' E 004°42'0 0.0 26.9
2014-Sep-16 11:39N 39°19' E 004°42'0 0.0 26.9
2014-Sep-16 11:34N 39°19' E 004°42'0 0.5 26.9
2014-Sep-16 10:38N 39°19' E 004°42'0 0.0 26.8
2014-Sep-16 09:53N 39°19' E 004°42'0 0.3 26.7
2014-Sep-16 09:00N 39°19' E 004°42'1 0.6 26.7
2014-Sep-16 08:09N 39°18' E 004°42'0 0.0
2014-Sep-16 05:58N 39°18' E 004°42'0 1.8 26.6
2014-Sep-16 05:46N 39°19' E 004°42'0 0.0 26.6
2014-Sep-16 05:39N 39°19' E 004°42'0 0.0 26.6
2014-Sep-16 04:19N 39°19' E 004°42'0 1.2 26.6
2014-Sep-16 04:09N 39°19' E 004°42'0 0.0 26.6
2014-Sep-16 04:05N 39°19' E 004°42'0 0.5 26.6
2014-Sep-16 03:32N 39°18' E 004°43'1 5.4 26.6
2014-Sep-16 03:26N 39°19' E 004°43'0 0.0 26.6
2014-Sep-16 01:53N 39°19' E 004°43'1 4.0 26.6
2014-Sep-16 01:44N 39°20' E 004°42'0 0.0 26.6
2014-Sep-16 00:12N 39°20' E 004°42'0 0.0 26.6
2014-Sep-16 00:07N 39°20' E 004°42'0 0.0 26.6
2014-Sep-15 22:26N 39°20' E 004°42'0 0.2 26.6
2014-Sep-15 20:47N 39°20' E 004°42'0 0.0 26.7
2014-Sep-15 20:38N 39°20' E 004°42'0 0.0 26.7
2014-Sep-15 20:19N 39°20' E 004°42'1 1.4 26.7
2014-Sep-15 19:51N 39°19' E 004°42'0 0.0 26.7
2014-Sep-15 19:05N 39°19' E 004°42'0 0.0 26.7
2014-Sep-15 18:42N 39°19' E 004°42'1 1.2 26.7
2014-Sep-15 17:35N 39°19' E 004°40'1 5.2 26.8
2014-Sep-15 17:26N 39°18' E 004°41'0 0.0 26.8
2014-Sep-15 16:59N 39°18' E 004°41'0 0.0 26.8
2014-Sep-15 15:56N 39°18' E 004°41'0 2.2 26.9
2014-Sep-15 15:45N 39°19' E 004°41'0 0.0 26.9
2014-Sep-15 15:40N 39°19' E 004°41'0 0.0 26.9
2014-Sep-15 15:10N 39°19' E 004°41'1 0.8 26.9
2014-Sep-15 14:04N 39°18' E 004°41'0 3.7 26.9
2014-Sep-15 14:01N 39°18' E 004°41'0 1.0 26.8
2014-Sep-15 13:31N 39°18' E 004°41'0 1.7 26.8
2014-Sep-15 13:26N 39°18' E 004°41'1 0.7 26.8
2014-Sep-15 11:50N 39°17' E 004°42'0 3.5 26.7
2014-Sep-15 11:45N 39°17' E 004°42'0 0.0 37.7
2014-Sep-15 11:02N 39°17' E 004°42'1 0.7 26.6
2014-Sep-15 10:16N 39°17' E 004°43'0 0.5 26.6
2014-Sep-15 09:22N 39°17' E 004°43'0 2.0 26.6
2014-Sep-15 09:16N 39°18' E 004°43'0 0.0 26.6
2014-Sep-15 08:36N 39°18' E 004°43'1 5.1 26.6
2014-Sep-15 08:30N 39°17' E 004°44'0 0.0 26.6
2014-Sep-15 07:43N 39°17' E 004°44'112.7 26.6
2014-Sep-15 07:39N 39°18' E 004°43'0 0.0 26.6
2014-Sep-15 06:30N 39°18' E 004°43'0 0.7 26.6
2014-Sep-15 06:11N 39°18' E 004°43'0 0.7 26.6
2014-Sep-15 05:57N 39°18' E 004°43'1 8.1 26.6
2014-Sep-15 05:51N 39°18' E 004°42'0 0.0 26.6
2014-Sep-15 04:48N 39°18' E 004°42'1 2.1 26.6
2014-Sep-15 04:32N 39°18' E 004°42'1 1.2 26.6
2014-Sep-15 03:44N 39°19' E 004°42'0 0.0 26.6
2014-Sep-15 02:37N 39°19' E 004°42'127.2 26.6
2014-Sep-15 02:34N 39°18' E 004°41'0 0.0 26.6
2014-Sep-15 02:07N 39°18' E 004°41'0 0.0
2014-Sep-15 02:04N 39°18' E 004°41'1 5.3 26.6
2014-Sep-15 01:57N 39°18' E 004°42'0 0.0 26.6
2014-Sep-15 00:21N 39°18' E 004°42'2 0.9 26.6
2014-Sep-14 22:40N 39°17' E 004°43'0 0.0 26.6
2014-Sep-14 21:58N 39°17' E 004°43'0 0.0 26.7
2014-Sep-14 21:09N 39°17' E 004°43'1 5.0 26.7
2014-Sep-14 21:01N 39°16' E 004°43'0 0.0 26.7
2014-Sep-14 20:17N 39°16' E 004°43'0 5.6 26.7
2014-Sep-14 20:12N 39°16' E 004°44'0 0.0 26.7
2014-Sep-14 19:24N 39°16' E 004°44'0 0.0 26.7
2014-Sep-14 19:19N 39°16' E 004°44'0 0.0 26.7
2014-Sep-14 19:12N 39°16' E 004°44'0 0.5 26.8
2014-Sep-14 18:37N 39°16' E 004°44'0 0.0 26.8
2014-Sep-14 17:58N 39°16' E 004°44'113.9 26.8
2014-Sep-14 17:54N 39°17' E 004°45'0 0.0 26.8
2014-Sep-14 17:37N 39°17' E 004°45'1 0.4 26.9
2014-Sep-14 16:19N 39°16' E 004°45'0 0.3 26.9
2014-Sep-14 15:58N 39°16' E 004°45'0 2.6 26.9
2014-Sep-14 15:51N 39°17' E 004°45'0 0.0 26.9
2014-Sep-14 15:21N 39°17' E 004°45'0 0.0 26.9
2014-Sep-14 14:38N 39°17' E 004°45'0 0.0 26.9
2014-Sep-14 14:17N 39°17' E 004°45'0 2.8 26.9
2014-Sep-14 14:10N 39°16' E 004°45'0 0.0 26.9
2014-Sep-14 13:40N 39°16' E 004°45'0 0.1 26.9
2014-Sep-14 12:01N 39°16' E 004°45'0 0.7 27.0
2014-Sep-14 11:57N 39°16' E 004°45'0 0.2 27.0
2014-Sep-14 11:22N 39°16' E 004°45'0 0.0 27.0
2014-Sep-14 10:36N 39°16' E 004°45'0 3.5 26.9
2014-Sep-14 10:29N 39°16' E 004°44'0 0.6
2014-Sep-14 09:41N 39°16' E 004°45'1 1.1 26.7
2014-Sep-14 08:54N 39°15' E 004°44'0 0.0 26.6
2014-Sep-14 07:57N 39°15' E 004°44'0 0.0 26.6
2014-Sep-14 07:02N 39°15' E 004°44'0 1.0 26.6
2014-Sep-14 06:36N 39°16' E 004°44'0 0.4 26.6
2014-Sep-14 06:08N 39°16' E 004°44'1 1.1 26.6
2014-Sep-14 05:23N 39°15' E 004°45'0 0.6 26.6
2014-Sep-14 04:57N 39°15' E 004°44'0 0.6 26.6
2014-Sep-14 04:29N 39°15' E 004°45'0 5.7 26.6
2014-Sep-14 04:25N 39°15' E 004°44'0 0.1 26.6
2014-Sep-14 03:53N 39°15' E 004°44'1 4.2 26.6
2014-Sep-14 03:41N 39°15' E 004°45'0 0.0 26.6
2014-Sep-14 02:50N 39°15' E 004°45'0 1.8 26.6
2014-Sep-14 02:44N 39°15' E 004°46'0 0.0 26.6
2014-Sep-14 02:18N 39°15' E 004°46'0 0.0 26.6
2014-Sep-14 02:14N 39°15' E 004°46'1 0.4 26.6
2014-Sep-14 00:35N 39°15' E 004°46'110.0 26.6
2014-Sep-14 00:28N 39°15' E 004°47'0 0.0
2014-Sep-13 22:19N 39°15' E 004°47'0 0.6 26.7
2014-Sep-13 22:14N 39°15' E 004°47'   26.7

Dump ship's entire track history